createdAt,value
2022-12-04T00:01:25.857Z,15.57
2022-12-04T00:03:54.350Z,15.52
2022-12-04T00:06:23.604Z,15.52
2022-12-04T00:08:52.501Z,15.27
2022-12-04T00:11:24.937Z,16.40
2022-12-04T00:13:52.841Z,17.13
2022-12-04T00:16:23.249Z,17.33
2022-12-04T00:18:51.473Z,15.30
2022-12-04T00:21:20.976Z,15.98
2022-12-04T00:23:49.001Z,15.27
2022-12-04T00:26:21.917Z,15.32
2022-12-04T00:28:51.689Z,15.65
2022-12-04T00:31:22.258Z,16.20
2022-12-04T00:33:50.449Z,16.60
2022-12-04T00:36:20.948Z,17.27
2022-12-04T00:38:49.100Z,15.70
2022-12-04T00:41:19.752Z,17.08
2022-12-04T00:43:47.854Z,17.40
2022-12-04T00:46:18.088Z,16.42
2022-12-04T00:48:46.308Z,17.67
2022-12-04T00:51:17.098Z,16.27
2022-12-04T00:53:45.317Z,16.50
2022-12-04T00:56:18.446Z,16.85
2022-12-04T00:58:47.187Z,16.88
2022-12-04T01:01:18.434Z,15.47
2022-12-04T01:03:46.895Z,16.38
2022-12-04T01:06:20.378Z,16.83
2022-12-04T01:08:48.710Z,17.38
2022-12-04T01:11:17.066Z,17.05
2022-12-04T01:13:45.122Z,18.37
2022-12-04T01:16:18.981Z,16.40
2022-12-04T01:18:47.282Z,16.63
2022-12-04T01:21:15.630Z,17.55
2022-12-04T01:23:44.043Z,18.80
2022-12-04T01:26:12.297Z,18.20
2022-12-04T01:28:40.575Z,18.05
2022-12-04T01:31:11.440Z,17.38
2022-12-04T01:33:41.670Z,18.25
2022-12-04T01:36:11.808Z,17.48
2022-12-04T01:38:40.005Z,17.90
2022-12-04T01:41:09.335Z,17.60
2022-12-04T01:43:38.641Z,18.83
2022-12-04T01:46:08.629Z,18.67
2022-12-04T01:48:39.101Z,15.60
2022-12-04T01:51:11.641Z,19.00
2022-12-04T01:53:41.508Z,19.90
2022-12-04T01:56:09.773Z,20.42
2022-12-04T01:58:41.311Z,20.48
2022-12-04T02:01:09.916Z,19.35
2022-12-04T02:03:38.995Z,17.67
2022-12-04T02:06:09.177Z,19.38
2022-12-04T02:08:37.608Z,18.23
2022-12-04T02:11:13.892Z,18.30
2022-12-04T02:13:47.775Z,18.90
2022-12-04T02:16:20.811Z,17.30
2022-12-04T02:18:58.169Z,18.45
2022-12-04T02:21:32.843Z,20.30
2022-12-04T02:24:23.521Z,18.85
2022-12-04T02:26:55.004Z,17.30
2022-12-04T02:29:31.422Z,16.83
2022-12-04T02:32:04.617Z,18.23
2022-12-04T02:34:38.882Z,20.35
2022-12-04T02:37:18.076Z,18.77
2022-12-04T02:39:51.813Z,19.27
2022-12-04T02:42:23.425Z,19.77
2022-12-04T02:44:58.048Z,18.27
2022-12-04T02:47:27.421Z,18.95
2022-12-04T02:49:58.249Z,18.67
2022-12-04T02:52:30.738Z,20.75
2022-12-04T02:55:04.105Z,19.53
2022-12-04T02:57:39.872Z,20.67
2022-12-04T03:00:10.797Z,17.15
2022-12-04T03:02:42.355Z,19.30
2022-12-04T03:05:13.337Z,19.17
2022-12-04T03:07:45.983Z,19.13
2022-12-04T03:10:17.186Z,20.08
2022-12-04T03:12:49.339Z,18.50
2022-12-04T03:15:22.758Z,17.90
2022-12-04T03:17:54.575Z,18.08
2022-12-04T03:20:22.982Z,16.70
2022-12-04T03:22:54.712Z,18.20
2022-12-04T03:25:25.112Z,19.05
2022-12-04T03:27:58.361Z,19.23
2022-12-04T03:30:31.685Z,18.27
2022-12-04T03:33:04.384Z,16.27
2022-12-04T03:35:35.462Z,17.02
2022-12-04T03:38:06.323Z,16.05
2022-12-04T03:40:37.111Z,17.33
2022-12-04T03:43:09.791Z,17.77
2022-12-04T03:45:43.265Z,18.63
2022-12-04T03:48:22.656Z,17.33
2022-12-04T03:50:53.914Z,18.20
2022-12-04T03:53:26.951Z,17.25
2022-12-04T03:55:59.400Z,19.10
2022-12-04T03:58:30.704Z,16.30
2022-12-04T04:01:01.047Z,19.30
2022-12-04T04:03:30.549Z,18.60
2022-12-04T04:06:01.007Z,18.35
2022-12-04T04:08:34.060Z,17.25
2022-12-04T04:11:07.091Z,18.20
2022-12-04T04:13:56.476Z,20.20
2022-12-04T04:16:47.164Z,18.30
2022-12-04T04:19:34.681Z,16.15
2022-12-04T04:22:23.596Z,19.08
2022-12-04T04:24:56.482Z,18.13
2022-12-04T04:27:24.447Z,16.92
2022-12-04T04:29:53.147Z,17.30
2022-12-04T04:32:28.222Z,19.63
2022-12-04T04:35:00.926Z,17.88
2022-12-04T04:37:34.740Z,19.33
2022-12-04T04:40:06.837Z,17.88
2022-12-04T04:42:37.587Z,16.13
2022-12-04T04:45:08.068Z,17.38
2022-12-04T04:47:41.025Z,16.40
2022-12-04T04:50:12.427Z,15.93
2022-12-04T04:52:42.636Z,17.90
2022-12-04T04:55:11.753Z,16.65
2022-12-04T04:57:39.907Z,17.02
2022-12-04T05:00:11.375Z,15.65
2022-12-04T05:02:40.700Z,17.10
2022-12-04T05:05:09.855Z,17.73
2022-12-04T05:07:37.985Z,17.33
2022-12-04T05:10:07.582Z,15.18
2022-12-04T05:12:35.511Z,15.55
2022-12-04T05:15:03.892Z,16.83
2022-12-04T05:17:31.830Z,17.70
2022-12-04T05:20:01.325Z,17.50
2022-12-04T05:22:31.516Z,16.02
2022-12-04T05:25:00.265Z,17.05
2022-12-04T05:27:29.197Z,15.30
2022-12-04T05:29:58.689Z,16.13
2022-12-04T05:32:29.001Z,16.77
2022-12-04T05:34:57.981Z,16.02
2022-12-04T05:37:27.328Z,17.80
2022-12-04T05:39:56.041Z,16.00
2022-12-04T05:42:24.142Z,15.25
2022-12-04T05:44:52.317Z,15.05
2022-12-04T05:47:20.985Z,16.73
2022-12-04T05:49:49.195Z,14.85
2022-12-04T05:52:17.096Z,14.63
2022-12-04T05:54:46.566Z,15.52
2022-12-04T05:57:14.449Z,16.52
2022-12-04T05:59:42.761Z,14.25
2022-12-04T06:02:10.714Z,15.73
2022-12-04T06:04:39.085Z,13.87
2022-12-04T06:07:07.052Z,13.82
2022-12-04T06:09:35.209Z,14.07
2022-12-04T06:12:04.986Z,14.40
2022-12-04T06:14:39.150Z,13.73
2022-12-04T06:17:08.680Z,12.57
2022-12-04T06:19:36.786Z,13.63
2022-12-04T06:22:04.741Z,14.43
2022-12-04T06:24:32.894Z,13.80
2022-12-04T06:29:50.726Z,15.60
2022-12-04T06:32:21.862Z,13.63
2022-12-04T06:34:54.753Z,12.50
2022-12-04T06:37:25.013Z,11.43
2022-12-04T06:39:53.326Z,12.00
2022-12-04T06:42:21.440Z,13.40
2022-12-04T06:44:51.309Z,13.23
2022-12-04T06:47:19.342Z,14.20
2022-12-04T06:49:50.423Z,13.13
2022-12-04T06:52:18.724Z,14.40
2022-12-04T06:54:46.919Z,15.30
2022-12-04T06:57:14.816Z,14.45
2022-12-04T06:59:42.992Z,14.30
2022-12-04T07:02:12.382Z,14.27
2022-12-04T07:04:40.666Z,13.43
2022-12-04T07:07:09.819Z,13.80
2022-12-04T07:09:38.073Z,17.00
2022-12-04T07:12:06.863Z,14.55
2022-12-04T07:14:35.125Z,15.05
2022-12-04T07:17:03.362Z,13.00
2022-12-04T07:19:32.917Z,13.27
2022-12-04T07:22:00.830Z,16.15
2022-12-04T07:24:29.417Z,15.57
2022-12-04T07:26:57.385Z,14.65
2022-12-04T07:29:25.496Z,14.07
2022-12-04T07:31:53.505Z,15.47
2022-12-04T07:34:21.796Z,13.57
2022-12-04T07:36:51.034Z,15.38
2022-12-04T07:39:19.240Z,13.00
2022-12-04T07:41:47.101Z,13.32
2022-12-04T07:44:16.276Z,16.97
2022-12-04T07:46:44.297Z,17.45
2022-12-04T07:49:13.438Z,13.95
2022-12-04T07:51:41.344Z,12.25
2022-12-04T07:54:10.831Z,15.05
2022-12-04T07:56:38.742Z,13.70
2022-12-04T07:59:07.033Z,13.27
2022-12-04T08:01:35.111Z,15.80
2022-12-04T08:04:04.440Z,14.32
2022-12-04T08:06:36.044Z,14.15
2022-12-04T08:09:09.465Z,13.70
2022-12-04T08:11:39.563Z,12.63
2022-12-04T08:14:09.560Z,14.23
2022-12-04T08:16:37.797Z,13.95
2022-12-04T08:19:06.054Z,13.48
2022-12-04T08:21:34.437Z,12.53
2022-12-04T08:24:02.963Z,13.25
2022-12-04T08:26:32.168Z,14.38
2022-12-04T08:29:02.563Z,16.05
2022-12-04T08:31:33.710Z,14.52
2022-12-04T08:34:04.214Z,13.50
2022-12-04T08:36:32.878Z,13.07
2022-12-04T08:39:01.368Z,12.50
2022-12-04T08:41:29.563Z,13.45
2022-12-04T08:43:58.742Z,12.57
2022-12-04T08:46:29.122Z,13.33
2022-12-04T08:48:57.747Z,13.98
2022-12-04T08:51:27.739Z,12.00
2022-12-04T08:53:56.722Z,13.82
2022-12-04T08:56:25.549Z,13.02
2022-12-04T08:58:53.782Z,13.00
2022-12-04T09:01:21.800Z,15.32
2022-12-04T09:03:51.380Z,14.50
2022-12-04T09:06:19.578Z,13.43
2022-12-04T09:08:47.895Z,12.80
2022-12-04T09:11:19.258Z,13.33
2022-12-04T09:13:48.062Z,14.10
2022-12-04T09:16:18.903Z,12.18
2022-12-04T09:18:47.877Z,11.43
2022-12-04T09:21:19.312Z,13.02
2022-12-04T09:23:47.666Z,13.13
2022-12-04T09:26:20.011Z,13.77
2022-12-04T09:28:48.547Z,14.98
2022-12-04T09:31:17.008Z,13.25
2022-12-04T09:33:45.644Z,12.88
2022-12-04T09:36:16.260Z,13.80
2022-12-04T09:38:48.121Z,13.80
2022-12-04T09:41:29.321Z,13.65
2022-12-04T09:43:59.820Z,14.50
2022-12-04T09:46:30.314Z,13.02
2022-12-04T09:48:59.653Z,13.53
2022-12-04T09:51:28.221Z,12.32
2022-12-04T09:54:00.841Z,11.65
2022-12-04T09:56:30.681Z,14.50
2022-12-04T09:59:01.794Z,14.73
2022-12-04T10:01:34.335Z,19.90
2022-12-04T10:04:06.056Z,27.83
2022-12-04T10:06:39.127Z,24.00
2022-12-04T10:09:13.381Z,17.23
2022-12-04T10:11:47.690Z,12.40
2022-12-04T10:14:25.394Z,13.23
2022-12-04T10:17:09.607Z,12.27
2022-12-04T10:19:45.307Z,12.52
2022-12-04T10:22:17.458Z,13.38
2022-12-04T10:24:49.316Z,14.43
2022-12-04T10:27:22.378Z,13.93
2022-12-04T10:29:54.717Z,14.20
2022-12-04T10:32:25.633Z,13.57
2022-12-04T10:34:55.978Z,13.05
2022-12-04T10:37:24.479Z,14.35
2022-12-04T10:39:57.451Z,13.67
2022-12-04T10:42:32.538Z,14.27
2022-12-04T10:45:00.844Z,13.57
2022-12-04T10:47:29.013Z,13.00
2022-12-04T10:50:00.784Z,12.68
2022-12-04T10:52:29.043Z,14.23
2022-12-04T10:55:00.179Z,14.85
2022-12-04T10:57:39.558Z,13.95
2022-12-04T11:00:26.959Z,14.63
2022-12-04T11:02:57.974Z,15.63
2022-12-04T11:05:29.796Z,15.40
2022-12-04T11:07:58.609Z,20.98
2022-12-04T11:10:32.539Z,24.40
2022-12-04T11:13:02.943Z,18.13
2022-12-04T11:15:31.653Z,18.13
2022-12-04T11:18:08.869Z,16.20
2022-12-04T11:20:37.203Z,16.48
2022-12-04T11:23:06.045Z,17.60
2022-12-04T11:25:39.153Z,15.55
2022-12-04T11:28:07.093Z,15.93
2022-12-04T11:30:37.325Z,15.30
2022-12-04T11:33:08.234Z,15.82
2022-12-04T11:35:36.491Z,17.00
2022-12-04T11:38:08.765Z,15.43
2022-12-04T11:40:38.393Z,17.10
2022-12-04T11:43:13.605Z,17.73
2022-12-04T11:45:41.999Z,19.23
2022-12-04T11:48:16.317Z,20.40
2022-12-04T11:50:51.727Z,19.83
2022-12-04T11:53:27.041Z,19.83
2022-12-04T11:56:10.153Z,24.23
2022-12-04T11:59:08.938Z,18.25
2022-12-04T12:01:42.908Z,19.35
2022-12-04T12:04:51.073Z,19.45
2022-12-04T12:07:32.402Z,22.75
2022-12-04T12:10:05.357Z,19.33
2022-12-04T12:12:42.361Z,21.95
2022-12-04T12:15:20.722Z,23.55
2022-12-04T12:17:51.725Z,20.05
2022-12-04T12:20:23.207Z,19.38
2022-12-04T12:23:13.720Z,18.87
2022-12-04T12:25:52.094Z,20.88
2022-12-04T12:28:40.148Z,19.20
2022-12-04T12:31:22.848Z,21.00
2022-12-04T12:33:55.293Z,21.13
2022-12-04T12:36:25.573Z,20.87
2022-12-04T12:38:56.787Z,22.08
2022-12-04T12:41:26.627Z,19.30
2022-12-04T12:44:02.682Z,23.17
2022-12-04T12:46:35.456Z,25.15
2022-12-04T12:49:05.458Z,20.67
2022-12-04T12:51:36.496Z,20.90
2022-12-04T12:54:13.860Z,20.83
2022-12-04T12:59:33.481Z,24.55
2022-12-04T13:02:06.869Z,21.33
2022-12-04T13:04:39.960Z,26.73
2022-12-04T13:07:21.168Z,24.75
2022-12-04T13:09:51.887Z,24.42
2022-12-04T13:12:20.514Z,20.77
2022-12-04T13:14:50.118Z,24.97
2022-12-04T13:17:21.495Z,23.90
2022-12-04T13:19:53.769Z,23.95
2022-12-04T13:22:29.169Z,23.40
2022-12-04T13:25:09.774Z,30.10
2022-12-04T13:27:46.473Z,30.77
2022-12-04T13:30:20.101Z,29.70
2022-12-04T13:33:18.468Z,24.73
2022-12-04T13:36:14.898Z,21.63
2022-12-04T13:38:55.102Z,20.23
2022-12-04T13:41:27.314Z,19.67
2022-12-04T13:43:57.474Z,21.23
2022-12-04T13:46:35.351Z,22.75
2022-12-04T13:49:12.621Z,23.33
2022-12-04T13:51:41.548Z,22.33
2022-12-04T13:54:30.466Z,22.17
2022-12-04T13:57:16.119Z,21.80
2022-12-04T13:59:45.024Z,26.33
2022-12-04T14:02:29.822Z,24.40
2022-12-04T14:05:01.555Z,22.25
2022-12-04T14:07:32.234Z,31.43
2022-12-04T14:10:04.508Z,43.13
2022-12-04T14:12:34.890Z,59.65
2022-12-04T14:15:05.362Z,53.85
2022-12-04T14:17:36.801Z,63.13
2022-12-04T14:20:08.209Z,41.43
2022-12-04T14:22:44.732Z,33.38
2022-12-04T14:25:35.412Z,39.17
2022-12-04T14:28:15.522Z,81.90
2022-12-04T14:30:45.043Z,56.17
2022-12-04T14:33:18.710Z,73.20
2022-12-04T14:35:49.091Z,96.18
2022-12-04T14:38:20.088Z,57.42
2022-12-04T14:40:49.607Z,35.15
2022-12-04T14:43:19.909Z,32.40
2022-12-04T14:45:52.219Z,32.90
2022-12-04T14:48:30.523Z,33.17
2022-12-04T14:51:03.941Z,24.33
2022-12-04T14:53:37.169Z,24.60
2022-12-04T14:56:18.883Z,24.85
2022-12-04T14:58:47.104Z,26.37
2022-12-04T15:01:28.364Z,24.08
2022-12-04T15:04:00.051Z,24.92
2022-12-04T15:06:30.025Z,28.23
2022-12-04T15:09:20.106Z,24.67
2022-12-04T15:12:08.518Z,29.63
2022-12-04T15:14:43.484Z,28.73
2022-12-04T15:17:19.527Z,25.50
2022-12-04T15:19:49.522Z,27.65
2022-12-04T15:22:26.513Z,26.75
2022-12-04T15:24:55.818Z,25.47
2022-12-04T15:27:30.514Z,26.50
2022-12-04T15:30:02.776Z,24.67
2022-12-04T15:32:31.704Z,28.05
2022-12-04T15:35:04.081Z,24.38
2022-12-04T15:37:32.912Z,22.73
2022-12-04T15:40:01.300Z,27.38
2022-12-04T15:42:30.618Z,26.00
2022-12-04T15:45:01.057Z,25.88
2022-12-04T15:47:31.736Z,24.17
2022-12-04T15:50:10.758Z,22.87
2022-12-04T15:52:39.053Z,26.17
2022-12-04T15:55:09.418Z,25.30
2022-12-04T15:57:39.220Z,23.05
2022-12-04T16:00:09.773Z,23.20
2022-12-04T16:02:41.234Z,23.87
2022-12-04T16:05:15.211Z,25.02
2022-12-04T16:07:50.238Z,25.98
2022-12-04T16:10:23.457Z,23.83
2022-12-04T16:12:55.273Z,26.23
2022-12-04T16:15:23.805Z,28.97
2022-12-04T16:17:52.091Z,29.27
2022-12-04T16:20:22.038Z,25.27
2022-12-04T16:22:52.423Z,26.50
2022-12-04T16:25:20.792Z,26.20
2022-12-04T16:27:48.663Z,30.13
2022-12-04T16:30:17.118Z,25.63
2022-12-04T16:32:45.112Z,25.67
2022-12-04T16:35:16.946Z,27.30
2022-12-04T16:37:46.300Z,28.83
2022-12-04T16:40:15.862Z,23.97
2022-12-04T16:42:44.949Z,27.50
2022-12-04T16:45:22.730Z,26.90
2022-12-04T16:47:50.804Z,29.00
2022-12-04T16:50:19.100Z,26.02
2022-12-04T16:52:48.404Z,26.27
2022-12-04T16:55:19.851Z,27.95
2022-12-04T16:57:47.997Z,27.13
2022-12-04T17:00:17.361Z,25.63
2022-12-04T17:02:45.794Z,25.38
2022-12-04T17:05:19.249Z,26.13
2022-12-04T17:07:48.904Z,24.67
2022-12-04T17:10:21.998Z,27.50
2022-12-04T17:12:52.917Z,29.23
2022-12-04T17:15:21.430Z,26.80
2022-12-04T17:17:49.454Z,29.90
2022-12-04T17:20:19.351Z,31.70
2022-12-04T17:22:48.973Z,31.80
2022-12-04T17:25:17.822Z,29.80
2022-12-04T17:27:46.083Z,30.58
2022-12-04T17:30:15.525Z,34.83
2022-12-04T17:32:43.568Z,30.88
2022-12-04T17:35:13.292Z,31.25
2022-12-04T17:37:41.436Z,26.77
2022-12-04T17:40:12.965Z,29.15
2022-12-04T17:42:41.013Z,26.73
2022-12-04T17:45:12.023Z,28.52
2022-12-04T17:47:40.001Z,28.33
2022-12-04T17:50:08.966Z,26.17
2022-12-04T17:52:36.940Z,27.08
2022-12-04T17:55:07.563Z,24.60
2022-12-04T17:57:38.269Z,26.20
2022-12-04T18:00:08.788Z,25.55
2022-12-04T18:02:41.387Z,25.50
2022-12-04T18:05:10.300Z,25.58
2022-12-04T18:07:38.281Z,30.97
2022-12-04T18:10:08.061Z,28.88
2022-12-04T18:12:36.114Z,26.48
2022-12-04T18:15:06.681Z,28.00
2022-12-04T18:17:34.623Z,28.02
2022-12-04T18:20:05.447Z,28.17
2022-12-04T18:22:34.531Z,30.45
2022-12-04T18:25:03.379Z,30.05
2022-12-04T18:27:37.793Z,30.42
2022-12-04T18:30:12.618Z,30.85
2022-12-04T18:32:41.520Z,27.30
2022-12-04T18:35:15.215Z,33.97
2022-12-04T18:37:46.548Z,30.13
2022-12-04T18:40:15.645Z,41.28
2022-12-04T18:42:43.733Z,33.35
2022-12-04T18:45:13.863Z,28.10
2022-12-04T18:47:41.951Z,33.83
2022-12-04T18:50:10.844Z,29.05
2022-12-04T18:52:38.810Z,32.08
2022-12-04T18:55:07.425Z,30.83
2022-12-04T18:57:35.585Z,30.63
2022-12-04T19:00:08.232Z,35.33
2022-12-04T19:02:37.580Z,34.47
2022-12-04T19:05:06.101Z,29.15
2022-12-04T19:07:34.093Z,30.88
2022-12-04T19:10:11.228Z,29.00
2022-12-04T19:12:58.301Z,31.10
2022-12-04T19:15:26.681Z,26.50
2022-12-04T19:17:55.982Z,40.03
2022-12-04T19:20:24.135Z,36.10
2022-12-04T19:22:52.052Z,41.50
2022-12-04T19:25:20.436Z,51.00
2022-12-04T19:27:48.353Z,48.55
2022-12-04T19:30:16.613Z,38.97
2022-12-04T19:32:44.501Z,32.03
2022-12-04T19:35:14.294Z,30.17
2022-12-04T19:37:43.981Z,31.75
2022-12-04T19:40:15.722Z,28.45
2022-12-04T19:42:43.712Z,28.13
2022-12-04T19:45:12.262Z,29.77
2022-12-04T19:47:40.313Z,31.00
2022-12-04T19:50:09.322Z,24.55
2022-12-04T19:52:38.785Z,25.48
2022-12-04T19:55:08.834Z,27.42
2022-12-04T19:57:36.974Z,29.25
2022-12-04T20:00:06.767Z,28.13
2022-12-04T20:02:40.410Z,30.00
2022-12-04T20:05:09.634Z,25.00
2022-12-04T20:07:39.074Z,26.30
2022-12-04T20:10:08.862Z,26.02
2022-12-04T20:12:36.858Z,26.27
2022-12-04T20:15:06.222Z,28.17
2022-12-04T20:17:34.220Z,24.55
2022-12-04T20:20:02.614Z,29.15
2022-12-04T20:22:31.854Z,26.40
2022-12-04T20:25:01.597Z,26.43
2022-12-04T20:27:30.270Z,28.48
2022-12-04T20:29:59.212Z,26.10
2022-12-04T20:32:27.271Z,25.38
2022-12-04T20:34:55.907Z,29.00
2022-12-04T20:37:23.938Z,27.37
2022-12-04T20:39:52.209Z,27.85
2022-12-04T20:42:21.667Z,28.63
2022-12-04T20:44:50.347Z,26.52
2022-12-04T20:47:18.283Z,28.10
2022-12-04T20:49:47.281Z,26.50
2022-12-04T20:52:15.193Z,28.02
2022-12-04T20:54:43.963Z,27.50
2022-12-04T20:57:15.094Z,29.90
2022-12-04T20:59:44.669Z,30.38
2022-12-04T21:02:13.057Z,32.03
2022-12-04T21:04:42.035Z,27.50
2022-12-04T21:07:10.036Z,26.15
2022-12-04T21:09:38.233Z,30.02
2022-12-04T21:12:27.196Z,29.90
2022-12-04T21:15:14.620Z,36.07
2022-12-04T21:17:42.573Z,29.33
2022-12-04T21:20:11.763Z,28.70
2022-12-04T21:22:39.672Z,33.88
2022-12-04T21:25:08.978Z,30.48
2022-12-04T21:27:36.945Z,35.20
2022-12-04T21:30:08.214Z,31.88
2022-12-04T21:32:36.227Z,35.88
2022-12-04T21:35:05.045Z,33.83
2022-12-04T21:37:33.016Z,37.55
2022-12-04T21:40:01.493Z,42.23
2022-12-04T21:42:33.795Z,38.33
2022-12-04T21:45:03.141Z,33.58
2022-12-04T21:47:33.509Z,32.90
2022-12-04T21:50:01.805Z,31.00
2022-12-04T21:52:29.795Z,28.63
2022-12-04T21:55:01.087Z,29.13
2022-12-04T21:57:29.305Z,29.02
2022-12-04T21:59:57.795Z,30.02
2022-12-04T22:02:26.039Z,29.33
2022-12-04T22:04:55.709Z,27.70
2022-12-04T22:07:23.669Z,32.35
2022-12-04T22:09:52.615Z,29.58
2022-12-04T22:12:47.897Z,31.83
2022-12-04T22:15:09.740Z,28.88
2022-12-04T22:17:37.652Z,30.47
2022-12-04T22:20:08.616Z,32.75
2022-12-04T22:22:36.685Z,30.27
2022-12-04T22:25:05.139Z,30.00
2022-12-04T22:27:33.215Z,29.35
2022-12-04T22:30:01.893Z,28.40
2022-12-04T22:32:31.592Z,32.50
2022-12-04T22:34:59.731Z,30.02
2022-12-04T22:37:29.088Z,29.58
2022-12-04T22:39:57.543Z,29.65
2022-12-04T22:42:25.626Z,30.73
2022-12-04T22:44:53.840Z,29.55
2022-12-04T22:47:21.783Z,32.17
2022-12-04T22:49:50.073Z,33.05
2022-12-04T22:52:19.053Z,31.00
2022-12-04T22:54:50.805Z,29.87
2022-12-04T22:57:20.675Z,28.48
2022-12-04T22:59:48.893Z,31.23
2022-12-04T23:02:16.941Z,30.20
2022-12-04T23:04:45.581Z,28.90
2022-12-04T23:07:13.598Z,30.30
2022-12-04T23:09:41.856Z,31.67
2022-12-04T23:12:11.241Z,33.03
2022-12-04T23:14:39.477Z,33.15
2022-12-04T23:17:07.540Z,32.90
2022-12-04T23:19:35.860Z,35.23
2022-12-04T23:22:03.781Z,31.90
2022-12-04T23:24:33.156Z,32.70
2022-12-04T23:27:01.222Z,30.02
2022-12-04T23:32:18.779Z,33.47
2022-12-04T23:34:46.979Z,31.23
2022-12-04T23:37:14.946Z,30.23
2022-12-04T23:39:43.510Z,30.27
2022-12-04T23:42:11.836Z,30.98
2022-12-04T23:44:41.304Z,29.93
2022-12-04T23:47:09.280Z,32.05
2022-12-04T23:49:37.527Z,31.30
2022-12-04T23:52:05.801Z,31.92
2022-12-04T23:54:35.855Z,28.30
2022-12-04T23:57:03.792Z,34.20
2022-12-04T23:59:32.067Z,31.30
